Time;durP1;ratioP1;P1;durP2;ratioP2;P2;SDS_P1;SDS_P2;PMS_P1;PMS_P2;Temp;Humidity;BMP_temperature;BMP_pressure;BME280_temperature;BME280_humidity;BME280_pressure;Samples;Min_cycle;Max_cycle;Signal;HPM_P1;HPM_P2
2024/04/07 00:01:54;;;;;;;4.68;2.10;;;17.20;94.60;;;;;;4993761;28;20454;-74
2024/04/07 00:04:20;;;;;;;5.28;2.05;;;17.10;94.80;;;;;;4993970;28;20030;-75
2024/04/07 00:06:46;;;;;;;4.88;2.08;;;17.10;94.80;;;;;;4996474;28;20038;-74
2024/04/07 00:09:14;;;;;;;6.22;2.05;;;17.00;94.90;;;;;;4996839;28;20061;-75
2024/04/07 00:11:41;;;;;;;3.30;2.17;;;17.00;95.20;;;;;;4996910;28;20026;-74
2024/04/07 00:14:07;;;;;;;4.07;2.72;;;17.00;95.30;;;;;;4997176;28;20038;-75
2024/04/07 00:16:35;;;;;;;3.65;2.30;;;17.00;95.60;;;;;;4997327;28;20137;-74
2024/04/07 00:19:01;;;;;;;2.97;2.00;;;17.00;95.60;;;;;;4996760;28;20046;-74
2024/04/07 00:21:27;;;;;;;3.55;2.00;;;17.00;95.50;;;;;;4997082;28;20041;-74
2024/04/07 00:23:54;;;;;;;3.30;1.85;;;17.00;95.50;;;;;;4997402;28;20018;-74
2024/04/07 00:26:20;;;;;;;5.65;2.10;;;17.00;95.50;;;;;;4997037;28;20030;-75
2024/04/07 00:28:46;;;;;;;3.83;2.70;;;16.90;95.40;;;;;;4996599;28;20042;-74
2024/04/07 00:31:13;;;;;;;5.72;2.70;;;16.90;95.50;;;;;;4996749;28;20041;-75
2024/04/07 00:33:39;;;;;;;3.80;2.60;;;16.90;95.60;;;;;;4997095;28;20030;-75
2024/04/07 00:36:06;;;;;;;5.13;2.58;;;16.90;95.80;;;;;;4996614;28;20026;-75
2024/04/07 00:38:32;;;;;;;4.50;2.40;;;16.90;95.80;;;;;;4995140;28;20046;-75
2024/04/07 00:41:00;;;;;;;3.63;2.40;;;16.90;95.70;;;;;;4996831;28;20037;-74
2024/04/07 00:43:27;;;;;;;5.55;3.03;;;16.80;95.80;;;;;;4996554;28;20023;-75
2024/04/07 00:45:58;;;;;;;4.15;2.60;;;16.80;95.80;;;;;;4996641;28;20031;-74
2024/04/07 00:48:25;;;;;;;4.50;2.60;;;16.80;96.20;;;;;;4996501;28;20038;-74
2024/04/07 00:50:56;;;;;;;4.95;2.85;;;16.80;96.30;;;;;;4996568;28;20030;-74
2024/04/07 00:53:22;;;;;;;7.68;3.22;;;16.70;96.10;;;;;;4996390;28;20026;-73
2024/04/07 00:55:49;;;;;;;7.47;3.03;;;16.70;96.10;;;;;;4996552;28;20034;-74
2024/04/07 00:58:17;;;;;;;4.68;2.58;;;16.70;96.20;;;;;;4995856;28;20512;-75
2024/04/07 01:00:45;;;;;;;5.15;2.72;;;16.60;96.40;;;;;;4996320;28;20022;-74
2024/04/07 01:03:13;;;;;;;4.88;2.75;;;16.60;96.60;;;;;;4996449;28;20030;-74
2024/04/07 01:05:39;;;;;;;4.55;3.03;;;16.60;96.70;;;;;;4996137;28;20018;-75
2024/04/07 01:08:07;;;;;;;4.80;3.03;;;16.60;96.90;;;;;;4996040;28;20038;-74
2024/04/07 01:10:34;;;;;;;6.68;2.85;;;16.60;97.00;;;;;;4996391;28;20038;-75
2024/04/07 01:13:00;;;;;;;8.82;2.42;;;16.60;96.60;;;;;;4996375;28;20041;-74
2024/04/07 01:15:26;;;;;;;4.30;2.67;;;16.50;96.60;;;;;;4996146;28;20026;-74
2024/04/07 01:17:53;;;;;;;4.18;2.67;;;16.50;96.50;;;;;;4995065;28;20022;-74
2024/04/07 01:20:19;;;;;;;4.07;2.38;;;16.30;96.40;;;;;;4996029;28;20033;-75
2024/04/07 01:22:46;;;;;;;3.60;2.40;;;16.20;96.50;;;;;;4995897;28;20026;-75
2024/04/07 01:25:18;;;;;;;3.95;2.28;;;16.10;96.70;;;;;;4996007;28;20038;-75
2024/04/07 01:28:00;;;;;;;3.42;2.47;;;16.10;96.80;;;;;;4995112;28;20038;-74
2024/04/07 01:30:28;;;;;;;4.60;2.88;;;16.10;97.40;;;;;;4996240;28;20471;-75
2024/04/07 01:32:54;;;;;;;3.42;2.17;;;16.10;97.20;;;;;;4995950;28;20038;-75
2024/04/07 01:35:20;;;;;;;3.63;2.53;;;16.10;97.30;;;;;;4995802;28;20042;-75
2024/04/07 01:37:47;;;;;;;5.07;2.65;;;16.10;97.30;;;;;;4995934;28;20033;-75
2024/04/07 01:40:13;;;;;;;3.55;2.63;;;16.10;97.10;;;;;;4995602;28;20046;-74
2024/04/07 01:42:41;;;;;;;3.20;2.55;;;16.00;97.10;;;;;;4995644;28;20026;-74
2024/04/07 01:45:09;;;;;;;5.43;2.40;;;16.00;97.30;;;;;;4995304;28;20022;-74
2024/04/07 01:47:36;;;;;;;4.88;2.63;;;16.00;97.50;;;;;;4995188;28;20049;-75
2024/04/07 01:50:03;;;;;;;6.90;2.58;;;16.00;97.50;;;;;;4995541;28;20026;-74
2024/04/07 01:52:30;;;;;;;3.45;2.53;;;16.00;97.50;;;;;;4995399;28;20031;-75
2024/04/07 01:54:56;;;;;;;3.33;2.60;;;16.00;97.50;;;;;;4995681;28;20026;-75
2024/04/07 01:57:22;;;;;;;7.03;2.90;;;16.00;97.60;;;;;;4995169;28;20042;-75
2024/04/07 01:59:49;;;;;;;4.88;2.78;;;16.00;97.60;;;;;;4995302;28;20026;-74
2024/04/07 02:02:19;;;;;;;5.00;2.65;;;16.00;97.60;;;;;;4995115;28;20033;-74
2024/04/07 02:04:49;;;;;;;4.40;2.50;;;15.90;97.70;;;;;;4994925;28;20038;-75
2024/04/07 02:07:18;;;;;;;4.78;2.72;;;15.90;97.90;;;;;;4994907;28;20035;-75
2024/04/07 02:09:50;;;;;;;5.30;2.50;;;15.80;97.70;;;;;;4994314;28;20512;-74
2024/04/07 02:12:16;;;;;;;4.50;2.53;;;15.90;97.80;;;;;;4994587;28;20381;-74
2024/04/07 02:14:43;;;;;;;5.82;3.00;;;15.80;97.70;;;;;;4994842;28;20026;-74
2024/04/07 02:17:12;;;;;;;4.65;2.90;;;15.80;97.90;;;;;;4995048;28;20022;-74
2024/04/07 02:19:39;;;;;;;4.78;3.20;;;15.80;98.10;;;;;;4994894;28;20030;-74
2024/04/07 02:22:05;;;;;;;3.58;2.40;;;15.80;98.40;;;;;;4995045;28;20046;-74
2024/04/07 02:24:32;;;;;;;4.43;2.67;;;15.80;98.40;;;;;;4994660;28;20027;-74
2024/04/07 02:26:58;;;;;;;3.65;2.85;;;15.90;98.50;;;;;;4994813;28;20366;-74
2024/04/07 02:29:24;;;;;;;4.45;2.92;;;15.90;98.50;;;;;;4994589;28;20050;-74
2024/04/07 02:31:51;;;;;;;4.45;2.58;;;15.90;98.70;;;;;;4995080;28;20027;-74
2024/04/07 02:34:17;;;;;;;4.70;2.80;;;15.90;98.60;;;;;;4994791;28;20374;-74
2024/04/07 02:36:43;;;;;;;3.92;2.55;;;15.90;98.70;;;;;;4994639;28;20022;-74
2024/04/07 02:39:10;;;;;;;5.07;3.03;;;15.90;98.50;;;;;;4994598;28;20034;-74
2024/04/07 02:41:36;;;;;;;3.45;2.53;;;15.80;98.40;;;;;;4994475;28;20022;-74
2024/04/07 02:44:03;;;;;;;3.58;2.60;;;15.80;98.50;;;;;;4994614;28;20035;-74
2024/04/07 02:49:15;;;;;;;7.35;2.90;;;15.70;98.70;;;;;;4994497;28;20037;-74
2024/04/07 02:51:41;;;;;;;4.18;2.45;;;15.70;98.80;;;;;;4994192;28;20026;-74
2024/04/07 02:54:09;;;;;;;4.50;2.45;;;15.60;98.40;;;;;;4994220;28;20030;-74
2024/04/07 02:56:36;;;;;;;5.25;2.50;;;15.60;98.30;;;;;;4994565;28;20023;-75
2024/04/07 02:59:03;;;;;;;5.78;2.72;;;15.50;98.20;;;;;;4994626;28;20031;-74
2024/04/07 03:01:29;;;;;;;7.45;3.50;;;15.50;98.10;;;;;;4994335;28;20030;-74
2024/04/07 03:03:56;;;;;;;5.30;3.25;;;15.40;98.20;;;;;;4994426;28;20033;-74
2024/04/07 03:06:22;;;;;;;6.00;3.55;;;15.40;98.10;;;;;;4994112;28;20030;-74
2024/04/07 03:08:49;;;;;;;8.20;3.63;;;15.30;98.10;;;;;;4994300;28;20481;-75
2024/04/07 03:11:15;;;;;;;5.40;3.63;;;15.30;98.40;;;;;;4994163;28;20034;-74
2024/04/07 03:13:41;;;;;;;6.20;3.92;;;15.30;98.70;;;;;;4994317;28;20093;-74
2024/04/07 03:16:13;;;;;;;5.75;3.65;;;15.30;98.80;;;;;;4993641;28;20038;-74
2024/04/07 03:18:39;;;;;;;6.72;4.13;;;15.30;99.10;;;;;;4994269;28;20022;-75
2024/04/07 03:21:05;;;;;;;8.40;4.05;;;15.30;99.00;;;;;;4994631;28;20023;-74
2024/04/07 03:23:32;;;;;;;6.57;4.05;;;15.30;99.10;;;;;;4994481;28;20033;-74
2024/04/07 03:25:59;;;;;;;8.60;4.55;;;15.30;99.10;;;;;;4993601;28;20045;-73
2024/04/07 03:28:25;;;;;;;8.98;4.28;;;15.30;99.10;;;;;;4993587;28;20061;-75
2024/04/07 03:30:52;;;;;;;7.03;4.85;;;15.30;99.10;;;;;;4994158;28;20034;-75
2024/04/07 03:33:18;;;;;;;9.80;5.30;;;15.30;99.30;;;;;;4993960;28;20045;-75
2024/04/07 03:35:45;;;;;;;9.00;4.70;;;15.30;99.20;;;;;;4993649;28;20492;-75
2024/04/07 03:38:11;;;;;;;8.20;4.50;;;15.30;99.30;;;;;;4994265;28;20041;-75
2024/04/07 03:40:38;;;;;;;11.35;5.43;;;15.30;99.60;;;;;;4995397;28;20027;-75
2024/04/07 03:43:04;;;;;;;8.75;4.50;;;15.30;99.30;;;;;;4998129;28;20045;-75
2024/04/07 03:45:30;;;;;;;10.18;4.65;;;15.30;99.50;;;;;;4997387;28;20053;-75
2024/04/07 03:47:57;;;;;;;7.15;4.70;;;15.30;99.40;;;;;;4997650;28;20488;-75
2024/04/07 03:50:23;;;;;;;9.20;4.63;;;15.30;99.40;;;;;;4997681;28;20038;-75
2024/04/07 03:52:49;;;;;;;9.77;4.85;;;15.30;99.40;;;;;;4997662;28;20027;-74
2024/04/07 03:55:15;;;;;;;8.75;4.60;;;15.30;99.50;;;;;;4997577;28;20030;-75
2024/04/07 03:57:42;;;;;;;8.02;4.85;;;15.30;99.60;;;;;;4997651;28;20026;-75
2024/04/07 04:00:08;;;;;;;10.18;5.55;;;15.30;99.80;;;;;;4997453;28;20030;-75
2024/04/07 04:02:35;;;;;;;8.75;5.18;;;15.30;99.80;;;;;;4997509;28;20034;-75
2024/04/07 04:05:02;;;;;;;8.63;4.57;;;15.30;99.80;;;;;;4997237;28;20038;-75
2024/04/07 04:07:30;;;;;;;9.45;4.07;;;15.30;99.80;;;;;;4997483;28;20039;-75
2024/04/07 04:09:58;;;;;;;10.73;4.63;;;15.30;99.80;;;;;;4995481;28;20051;-75
2024/04/07 04:12:26;;;;;;;7.88;4.35;;;15.30;99.80;;;;;;4997290;28;20033;-75
2024/04/07 04:14:53;;;;;;;8.07;4.63;;;15.30;99.80;;;;;;4997621;28;20477;-75
2024/04/07 04:17:20;;;;;;;29.27;13.18;;;15.30;99.80;;;;;;4997073;28;20030;-76
2024/04/07 04:19:47;;;;;;;11.55;6.22;;;15.30;99.80;;;;;;4997542;28;20033;-75
2024/04/07 04:22:13;;;;;;;7.35;4.78;;;15.20;99.80;;;;;;4985072;28;20042;-76
2024/04/07 04:24:39;;;;;;;8.32;4.88;;;15.20;99.90;;;;;;5008202;28;20030;-75
2024/04/07 04:27:06;;;;;;;9.65;4.50;;;15.20;99.90;;;;;;5005782;28;20038;-75
2024/04/07 04:29:33;;;;;;;5.43;4.10;;;15.20;99.90;;;;;;4991654;28;20034;-75
2024/04/07 04:32:00;;;;;;;9.57;4.63;;;15.30;99.90;;;;;;4997411;28;20037;-74
2024/04/07 04:34:27;;;;;;;7.70;4.45;;;15.20;99.90;;;;;;4996087;28;20041;-74
2024/04/07 04:36:53;;;;;;;8.82;4.40;;;15.30;99.90;;;;;;4995136;28;20042;-74
2024/04/07 04:39:19;;;;;;;9.48;4.55;;;15.30;99.90;;;;;;4995628;28;20469;-74
2024/04/07 04:41:46;;;;;;;9.60;4.95;;;15.20;99.90;;;;;;4995579;28;20026;-73
2024/04/07 04:44:13;;;;;;;8.88;4.60;;;15.30;99.90;;;;;;4995550;28;20037;-74
2024/04/07 04:46:41;;;;;;;8.32;4.07;;;15.30;99.90;;;;;;4995146;28;20026;-74
2024/04/07 04:49:14;;;;;;;9.05;4.47;;;15.30;99.90;;;;;;4995276;28;20038;-74
2024/04/07 04:51:41;;;;;;;9.98;4.38;;;15.30;99.90;;;;;;5020751;28;20039;-74
2024/04/07 04:54:07;;;;;;;5.65;4.05;;;15.30;99.90;;;;;;5026745;28;20050;-74
2024/04/07 04:56:33;;;;;;;6.05;4.15;;;15.30;99.90;;;;;;4996296;28;20038;-75
2024/04/07 04:59:02;;;;;;;7.15;4.45;;;15.40;99.90;;;;;;4996043;28;20350;-75
2024/04/07 05:01:29;;;;;;;6.95;4.43;;;15.40;99.90;;;;;;4995735;28;20022;-76
2024/04/07 05:03:56;;;;;;;7.00;4.15;;;15.40;99.90;;;;;;4995901;28;20472;-75
2024/04/07 05:06:24;;;;;;;7.32;4.40;;;15.40;99.90;;;;;;4998569;28;20030;-75
2024/04/07 05:08:51;;;;;;;6.78;3.85;;;15.40;99.90;;;;;;5015002;28;20037;-76
2024/04/07 05:11:18;;;;;;;6.95;4.03;;;15.40;99.90;;;;;;5015509;28;20030;-75
2024/04/07 05:13:44;;;;;;;6.30;4.25;;;15.40;99.90;;;;;;5015141;28;20033;-75
2024/04/07 05:16:11;;;;;;;11.00;4.68;;;15.40;99.90;;;;;;5015127;28;20030;-75
2024/04/07 05:18:39;;;;;;;7.43;4.00;;;15.50;99.90;;;;;;5014661;28;20029;-75
2024/04/07 05:21:08;;;;;;;7.43;4.38;;;15.50;99.90;;;;;;5014097;28;20017;-75
2024/04/07 05:23:41;;;;;;;9.98;4.53;;;15.60;99.90;;;;;;5015144;28;20032;-75
2024/04/07 05:26:08;;;;;;;9.35;4.30;;;15.60;99.90;;;;;;5014897;28;20026;-75
2024/04/07 05:28:34;;;;;;;7.43;4.22;;;15.70;99.90;;;;;;5014917;28;20037;-75
2024/04/07 05:31:03;;;;;;;7.65;4.55;;;15.70;99.90;;;;;;5014839;28;20041;-75
2024/04/07 05:33:31;;;;;;;8.05;4.10;;;15.80;99.90;;;;;;5014843;28;20040;-75
2024/04/07 05:35:57;;;;;;;8.27;4.85;;;15.80;99.90;;;;;;5013897;28;20032;-76
2024/04/07 05:38:23;;;;;;;7.05;4.30;;;15.80;99.90;;;;;;4994997;28;20037;-75
2024/04/07 05:40:57;;;;;;;6.72;4.38;;;15.90;99.90;;;;;;4995091;28;20034;-75
2024/04/07 05:43:24;;;;;;;7.53;4.28;;;16.00;99.90;;;;;;4994941;28;20034;-75
2024/04/07 05:45:50;;;;;;;7.90;4.53;;;16.00;99.90;;;;;;4995059;28;20022;-75
2024/04/07 05:48:20;;;;;;;6.47;4.15;;;16.10;99.90;;;;;;4994674;28;20030;-74
2024/04/07 05:50:48;;;;;;;7.60;3.63;;;16.10;99.90;;;;;;4994616;28;20053;-75
2024/04/07 05:53:14;;;;;;;7.70;4.30;;;16.10;99.90;;;;;;4994703;28;20029;-74
2024/04/07 05:55:40;;;;;;;8.38;4.88;;;16.20;99.90;;;;;;4994852;28;20031;-74
2024/04/07 05:58:06;;;;;;;12.90;5.40;;;16.30;99.90;;;;;;4994355;28;20034;-75
2024/04/07 06:00:34;;;;;;;7.25;4.55;;;16.30;99.90;;;;;;5014737;28;20531;-75
2024/04/07 06:03:04;;;;;;;11.38;5.07;;;16.40;99.90;;;;;;4993786;28;20393;-75
2024/04/07 06:05:32;;;;;;;9.60;5.20;;;16.40;99.90;;;;;;4993564;28;20038;-74
2024/04/07 06:07:59;;;;;;;9.48;4.55;;;16.50;99.90;;;;;;4994762;28;20030;-74
2024/04/07 06:10:25;;;;;;;5.72;3.72;;;16.50;99.90;;;;;;4994071;28;20095;-74
2024/04/07 06:12:51;;;;;;;6.57;4.07;;;16.60;99.90;;;;;;4993909;28;20350;-74
2024/04/07 06:15:18;;;;;;;6.15;3.97;;;16.70;99.90;;;;;;4992291;28;20041;-74
2024/04/07 06:17:48;;;;;;;6.53;4.05;;;16.70;99.90;;;;;;4993677;28;20034;-74
2024/04/07 06:20:15;;;;;;;7.57;4.28;;;16.80;99.90;;;;;;4991261;28;20015;-74
2024/04/07 06:22:42;;;;;;;6.28;4.22;;;16.90;99.90;;;;;;4993622;28;20053;-75
2024/04/07 06:25:08;;;;;;;7.57;4.18;;;16.90;99.90;;;;;;4983690;28;20050;-74
2024/04/07 06:27:35;;;;;;;6.88;4.30;;;16.90;99.90;;;;;;4984696;28;20018;-75
2024/04/07 06:30:07;;;;;;;6.90;4.28;;;16.90;99.90;;;;;;4982243;28;20485;-74
2024/04/07 06:32:33;;;;;;;6.80;4.60;;;17.00;99.90;;;;;;4983052;28;20492;-75
2024/04/07 06:35:00;;;;;;;9.18;4.45;;;17.00;99.90;;;;;;4983054;28;20034;-75
2024/04/07 06:37:26;;;;;;;7.95;3.90;;;17.00;99.90;;;;;;4993911;28;20023;-71
2024/04/07 06:39:52;;;;;;;7.75;4.03;;;17.10;99.90;;;;;;4994179;28;20495;-74
2024/04/07 06:42:27;;;;;;;5.75;3.92;;;17.10;99.90;;;;;;4993923;28;20035;-74
2024/04/07 06:44:54;;;;;;;7.15;3.92;;;17.20;99.90;;;;;;4994204;28;20034;-74
2024/04/07 06:47:21;;;;;;;8.30;4.40;;;17.30;99.90;;;;;;4993979;28;20469;-74
2024/04/07 06:49:52;;;;;;;8.75;4.32;;;17.30;99.90;;;;;;4993235;28;20384;-75
2024/04/07 06:52:19;;;;;;;10.00;3.90;;;17.40;99.90;;;;;;4993809;28;20029;-74
2024/04/07 06:54:45;;;;;;;5.93;4.00;;;17.40;99.90;;;;;;4993582;28;20041;-74
2024/04/07 06:57:16;;;;;;;6.22;4.05;;;17.60;99.90;;;;;;4993602;28;20034;-74
2024/04/07 06:59:43;;;;;;;5.43;3.70;;;17.70;99.90;;;;;;5009789;28;20022;-74
2024/04/07 07:02:09;;;;;;;9.48;4.07;;;17.80;99.90;;;;;;5013773;28;20034;-74
2024/04/07 07:04:35;;;;;;;8.75;4.15;;;17.90;99.90;;;;;;5014170;28;20034;-74
2024/04/07 07:07:02;;;;;;;8.00;4.15;;;18.10;99.90;;;;;;5012826;28;20037;-74
2024/04/07 07:09:29;;;;;;;65.60;27.45;;;18.20;99.90;;;;;;5012583;28;20061;-74
2024/04/07 07:11:55;;;;;;;17.10;7.72;;;18.30;99.90;;;;;;5012866;28;20030;-74
2024/04/07 07:14:22;;;;;;;20.88;8.93;;;18.40;99.90;;;;;;5000531;28;20411;-73
2024/04/07 07:16:48;;;;;;;11.07;5.63;;;18.50;99.90;;;;;;4995003;28;20054;-74
2024/04/07 07:19:15;;;;;;;7.20;3.88;;;18.60;99.90;;;;;;5007693;28;20045;-74
2024/04/07 07:21:41;;;;;;;7.07;3.65;;;18.70;99.90;;;;;;5006604;28;20036;-74
2024/04/07 07:24:07;;;;;;;6.63;3.92;;;18.80;99.90;;;;;;5004519;28;20568;-74
2024/04/07 07:26:34;;;;;;;5.60;3.20;;;18.80;99.90;;;;;;5002720;28;20036;-74
2024/04/07 07:29:00;;;;;;;7.45;3.55;;;18.90;99.90;;;;;;5002737;28;20357;-74
2024/04/07 07:31:28;;;;;;;6.53;3.28;;;19.00;99.90;;;;;;5016938;28;20034;-74
2024/04/07 07:33:54;;;;;;;7.55;3.30;;;19.10;99.90;;;;;;5016712;28;20033;-74
2024/04/07 07:36:20;;;;;;;5.65;2.95;;;19.20;99.90;;;;;;5016463;28;20026;-74
2024/04/07 07:38:47;;;;;;;4.95;2.83;;;19.30;99.90;;;;;;5016950;28;20033;-74
2024/04/07 07:41:18;;;;;;;4.82;2.80;;;19.50;99.90;;;;;;4999857;28;20400;-74
2024/04/07 07:43:47;;;;;;;5.53;2.85;;;19.60;99.90;;;;;;4997240;28;20404;-74
2024/04/07 07:46:13;;;;;;;4.95;2.65;;;19.60;99.90;;;;;;4997171;28;20045;-74
2024/04/07 07:48:40;;;;;;;4.35;2.50;;;19.70;99.90;;;;;;4997079;28;20027;-74
2024/04/07 07:51:10;;;;;;;6.78;2.90;;;19.90;99.90;;;;;;4996307;28;20043;-74
2024/04/07 07:53:37;;;;;;;6.50;2.70;;;19.90;99.90;;;;;;4997087;28;20465;-74
2024/04/07 07:56:07;;;;;;;5.78;2.47;;;20.00;99.90;;;;;;4997106;28;20041;-74
2024/04/07 07:58:37;;;;;;;4.85;2.72;;;20.10;99.90;;;;;;4997201;28;20026;-74
2024/04/07 08:01:04;;;;;;;6.35;2.72;;;20.10;99.90;;;;;;5013606;28;20038;-74
2024/04/07 08:03:31;;;;;;;5.00;2.55;;;20.20;99.90;;;;;;5016687;28;20098;-73
2024/04/07 08:05:58;;;;;;;6.13;2.55;;;20.30;99.90;;;;;;5015939;28;20038;-74
2024/04/07 08:08:24;;;;;;;4.28;2.70;;;20.40;99.90;;;;;;5016258;28;20042;-73
2024/04/07 08:10:51;;;;;;;4.72;2.85;;;20.50;99.90;;;;;;5016368;28;20034;-71
2024/04/07 08:13:17;;;;;;;5.45;3.15;;;20.60;99.90;;;;;;5016454;28;20037;-73
2024/04/07 08:15:44;;;;;;;4.68;2.45;;;20.70;99.90;;;;;;5016195;28;20037;-72
2024/04/07 08:18:11;;;;;;;5.07;2.60;;;20.80;99.90;;;;;;5016305;28;20369;-73
2024/04/07 08:20:38;;;;;;;5.07;2.50;;;20.90;99.90;;;;;;5015752;28;20026;-73
2024/04/07 08:23:05;;;;;;;6.20;2.30;;;21.00;99.90;;;;;;5016116;28;20522;-72
2024/04/07 08:25:33;;;;;;;3.45;1.80;;;21.10;99.90;;;;;;5015997;28;20353;-72
2024/04/07 08:28:00;;;;;;;4.50;1.95;;;21.20;99.90;;;;;;5015963;28;20042;-71
2024/04/07 08:30:26;;;;;;;5.95;2.50;;;21.30;99.90;;;;;;5003973;28;20053;-71
2024/04/07 08:32:53;;;;;;;3.42;2.35;;;21.30;99.90;;;;;;4996346;28;20046;-72
2024/04/07 08:35:19;;;;;;;4.05;2.30;;;21.50;99.80;;;;;;4995748;28;20043;-72
2024/04/07 08:37:46;;;;;;;4.07;2.17;;;21.60;99.80;;;;;;4996266;28;20041;-71
2024/04/07 08:40:12;;;;;;;4.07;1.83;;;21.60;99.70;;;;;;4996326;28;20045;-71
2024/04/07 08:42:40;;;;;;;2.58;1.77;;;21.70;99.30;;;;;;4995826;28;20027;-71
2024/04/07 08:45:08;;;;;;;4.97;1.90;;;21.80;99.20;;;;;;4995729;28;20114;-71
2024/04/07 08:47:38;;;;;;;4.35;1.58;;;21.90;99.00;;;;;;4996160;28;20054;-71
2024/04/07 08:50:09;;;;;;;3.78;1.92;;;22.00;98.60;;;;;;4995576;28;20038;-72
2024/04/07 08:52:37;;;;;;;3.22;1.75;;;22.00;98.60;;;;;;4996096;28;20033;-72
2024/04/07 08:55:05;;;;;;;3.53;1.63;;;22.10;98.70;;;;;;4994376;28;20038;-73
2024/04/07 08:57:31;;;;;;;3.95;1.52;;;22.20;98.60;;;;;;4994318;28;20037;-73
2024/04/07 08:59:59;;;;;;;3.08;1.88;;;22.30;98.40;;;;;;5003518;28;20388;-72
2024/04/07 09:02:31;;;;;;;4.90;1.67;;;22.40;98.50;;;;;;5015235;28;20045;-73
2024/04/07 09:04:59;;;;;;;3.63;1.45;;;22.50;98.00;;;;;;5014921;28;20034;-73
2024/04/07 09:07:25;;;;;;;3.58;1.38;;;22.60;98.10;;;;;;5015218;28;20380;-73
2024/04/07 09:09:51;;;;;;;2.35;1.30;;;22.60;97.80;;;;;;5014618;28;20042;-73
2024/04/07 09:12:18;;;;;;;5.75;1.65;;;22.70;97.40;;;;;;5000954;28;20472;-73
2024/04/07 09:14:50;;;;;;;3.13;1.45;;;22.80;97.20;;;;;;4976202;28;20049;-73
2024/04/07 09:17:17;;;;;;;4.53;1.50;;;22.90;96.30;;;;;;4990981;28;20042;-73
2024/04/07 09:19:43;;;;;;;3.17;1.48;;;22.90;96.90;;;;;;4975670;28;20371;-73
2024/04/07 09:22:09;;;;;;;30.50;3.15;;;23.00;96.70;;;;;;4976045;28;20038;-73
2024/04/07 09:24:37;;;;;;;2.30;1.30;;;23.10;96.70;;;;;;4976045;28;20385;-73
2024/04/07 09:27:10;;;;;;;2.63;1.40;;;23.20;96.50;;;;;;5007120;28;20049;-73
2024/04/07 09:29:39;;;;;;;3.50;1.58;;;23.20;96.30;;;;;;4979428;28;20035;-72
2024/04/07 09:32:06;;;;;;;1.75;0.90;;;23.30;95.40;;;;;;5014200;28;20042;-73
2024/04/07 09:34:35;;;;;;;5.32;1.40;;;23.30;95.10;;;;;;5012459;28;20026;-73
2024/04/07 09:37:02;;;;;;;4.18;1.40;;;23.40;94.80;;;;;;5012562;28;20034;-73
2024/04/07 09:39:28;;;;;;;1.90;1.15;;;23.50;94.80;;;;;;5012572;28;20041;-73
2024/04/07 09:42:00;;;;;;;3.42;1.08;;;23.50;94.70;;;;;;5013623;28;20038;-73
2024/04/07 09:44:34;;;;;;;1.50;0.88;;;23.60;94.10;;;;;;5013802;28;20464;-73
2024/04/07 09:47:07;;;;;;;3.22;1.10;;;23.60;93.80;;;;;;5013736;28;20037;-72
2024/04/07 09:49:36;;;;;;;;;;;23.70;93.40;;;;;;5014444;28;20037;-73
2024/04/07 09:52:04;;;;;;;3.67;1.05;;;23.80;92.40;;;;;;5014243;28;20374;-73
2024/04/07 09:54:40;;;;;;;2.58;1.17;;;23.90;93.70;;;;;;5014453;28;20037;-73
2024/04/07 09:57:10;;;;;;;2.28;1.30;;;24.00;94.10;;;;;;5014139;28;20030;-73
2024/04/07 09:59:42;;;;;;;1.50;1.00;;;24.10;93.40;;;;;;4994974;28;20488;-73
2024/04/07 10:02:10;;;;;;;4.30;1.25;;;24.20;92.50;;;;;;4995055;28;20037;-73
2024/04/07 10:04:39;;;;;;;6.15;1.25;;;24.30;92.60;;;;;;4993836;28;20022;-73
2024/04/07 10:07:07;;;;;;;2.83;1.00;;;24.30;92.50;;;;;;4992401;28;20061;-73
2024/04/07 10:09:35;;;;;;;1.45;0.95;;;24.40;92.70;;;;;;4993040;28;20053;-73
2024/04/07 10:12:01;;;;;;;1.83;1.15;;;24.50;91.60;;;;;;4992600;28;20030;-73
2024/04/07 10:14:41;;;;;;;3.53;1.30;;;24.60;92.10;;;;;;4992726;28;20022;-73
2024/04/07 10:17:09;;;;;;;5.70;1.23;;;24.70;91.50;;;;;;4994203;28;20022;-72
2024/04/07 10:19:45;;;;;;;2.83;1.13;;;24.70;92.10;;;;;;4994045;28;20030;-73
2024/04/07 10:22:13;;;;;;;2.40;1.00;;;24.80;90.40;;;;;;5008097;28;20039;-73
2024/04/07 10:24:42;;;;;;;1.73;1.10;;;24.80;91.20;;;;;;4992889;28;20022;-73
2024/04/07 10:27:10;;;;;;;2.42;1.20;;;24.90;90.80;;;;;;4993660;28;20026;-73
2024/04/07 10:29:39;;;;;;;1.92;1.10;;;25.00;91.00;;;;;;4994525;28;20035;-73
2024/04/07 10:32:16;;;;;;;2.53;1.10;;;25.00;91.00;;;;;;4994681;28;20038;-73
2024/04/07 10:35:22;;;;;;;2.65;1.20;;;25.00;91.10;;;;;;4993963;28;20029;-73
2024/04/07 10:37:51;;;;;;;2.38;1.70;;;25.20;89.30;;;;;;4936662;29;20454;-73
2024/04/07 10:40:18;;;;;;;2.90;0.82;;;25.20;90.70;;;;;;4953490;29;20429;-73
2024/04/07 10:42:44;;;;;;;2.58;1.23;;;25.30;90.00;;;;;;4953325;29;20402;-73
2024/04/07 10:45:12;;;;;;;3.67;0.95;;;25.30;90.10;;;;;;4952005;29;20109;-73
2024/04/07 10:47:39;;;;;;;3.35;1.45;;;25.40;89.70;;;;;;4951211;29;20035;-73
2024/04/07 10:50:08;;;;;;;4.05;1.35;;;25.50;90.00;;;;;;4950997;28;20058;-73
2024/04/07 10:52:34;;;;;;;1.52;1.05;;;25.50;89.60;;;;;;4951537;29;20374;-73
2024/04/07 10:55:00;;;;;;;1.70;1.00;;;25.60;89.80;;;;;;4951324;29;20394;-73
2024/04/07 10:57:27;;;;;;;2.40;1.23;;;25.60;89.00;;;;;;4951475;29;20042;-73
2024/04/07 10:59:53;;;;;;;1.17;0.70;;;25.70;89.40;;;;;;4952648;29;20030;-73
2024/04/07 11:02:19;;;;;;;3.90;1.50;;;25.70;89.40;;;;;;4937285;29;20521;-73
2024/04/07 11:04:45;;;;;;;3.00;1.38;;;25.80;89.50;;;;;;4953491;29;20143;-73
2024/04/07 11:07:13;;;;;;;20.58;7.78;;;25.90;89.20;;;;;;4953877;28;20035;-73
2024/04/07 11:09:41;;;;;;;4.68;1.42;;;25.90;88.40;;;;;;4991400;28;20093;-73
2024/04/07 11:12:09;;;;;;;3.78;1.55;;;26.00;85.90;;;;;;4994059;28;20034;-73
2024/04/07 11:14:35;;;;;;;4.88;1.30;;;26.00;86.10;;;;;;4993889;28;20030;-73
2024/04/07 11:17:06;;;;;;;3.10;1.40;;;26.10;87.00;;;;;;4994147;28;20034;-73
2024/04/07 11:19:34;;;;;;;7.45;3.63;;;26.10;87.60;;;;;;4994223;28;20027;-73
2024/04/07 11:22:03;;;;;;;2.53;0.90;;;26.10;87.80;;;;;;4993944;28;20461;-73
2024/04/07 11:24:31;;;;;;;3.15;1.30;;;26.20;87.90;;;;;;4992547;28;20355;-73
2024/04/07 11:26:58;;;;;;;1.50;0.90;;;26.30;87.40;;;;;;4994513;28;20053;-73
2024/04/07 11:29:25;;;;;;;1.27;0.80;;;26.40;87.30;;;;;;4993785;28;20026;-73
2024/04/07 11:31:53;;;;;;;2.70;1.00;;;26.40;86.80;;;;;;4993288;28;20042;-73
2024/04/07 11:34:20;;;;;;;2.40;0.90;;;26.50;85.70;;;;;;4983516;28;20047;-73
2024/04/07 11:36:47;;;;;;;3.30;0.90;;;26.50;85.80;;;;;;5003233;28;20034;-73
2024/04/07 11:39:18;;;;;;;1.58;0.80;;;26.50;84.90;;;;;;5004881;28;20034;-73
2024/04/07 11:41:45;;;;;;;2.22;0.80;;;26.60;84.80;;;;;;5002109;28;20042;-73
2024/04/07 11:44:11;;;;;;;2.28;1.00;;;26.60;84.10;;;;;;5000617;28;20049;-73
2024/04/07 11:46:38;;;;;;;2.17;0.80;;;26.60;82.20;;;;;;5000555;28;20031;-73
2024/04/07 11:49:04;;;;;;;2.65;1.00;;;26.60;82.00;;;;;;4988609;28;20059;-70
2024/04/07 11:51:35;;;;;;;1.95;0.90;;;26.70;81.90;;;;;;5012816;28;20041;-73
2024/04/07 11:54:01;;;;;;;1.90;0.77;;;26.80;82.70;;;;;;5012542;28;20368;-73
2024/04/07 11:56:28;;;;;;;1.92;1.00;;;26.90;82.40;;;;;;5012809;28;20045;-73
2024/04/07 11:58:54;;;;;;;1.98;1.10;;;27.00;82.10;;;;;;5012909;28;20045;-73
2024/04/07 12:01:20;;;;;;;1.13;0.82;;;27.10;81.50;;;;;;5013688;28;20380;-73
2024/04/07 12:03:47;;;;;;;2.55;0.80;;;27.10;80.90;;;;;;5016533;28;20041;-72
2024/04/07 12:06:14;;;;;;;1.92;0.98;;;27.20;81.20;;;;;;5016317;28;20026;-73
2024/04/07 12:08:40;;;;;;;2.03;0.90;;;27.20;81.00;;;;;;5014528;28;20042;-72
2024/04/07 12:11:06;;;;;;;2.72;1.20;;;27.30;80.40;;;;;;5015664;28;20048;-72
2024/04/07 12:13:33;;;;;;;2.63;1.02;;;27.40;80.80;;;;;;5016218;28;20033;-73
2024/04/07 12:15:59;;;;;;;2.40;0.95;;;27.30;80.40;;;;;;5016257;28;20025;-72
2024/04/07 12:18:25;;;;;;;7.88;1.08;;;27.30;80.00;;;;;;5013863;28;20395;-73
2024/04/07 12:20:51;;;;;;;1.33;0.90;;;27.30;80.10;;;;;;4996837;28;20030;-72
2024/04/07 12:23:18;;;;;;;1.35;0.82;;;27.40;79.60;;;;;;4996086;28;20035;-72
2024/04/07 12:25:44;;;;;;;1.00;0.60;;;27.40;79.70;;;;;;4996168;28;20384;-73
2024/04/07 12:28:10;;;;;;;4.55;1.33;;;27.40;79.00;;;;;;4994651;28;20412;-73
2024/04/07 12:30:37;;;;;;;4.55;1.00;;;27.40;78.80;;;;;;4997003;28;20050;-73
2024/04/07 12:33:04;;;;;;;1.30;0.80;;;27.50;78.80;;;;;;4996270;28;20038;-73
2024/04/07 12:35:30;;;;;;;1.58;0.90;;;27.60;79.30;;;;;;4996344;28;20349;-73
2024/04/07 12:37:58;;;;;;;6.65;0.90;;;27.70;77.90;;;;;;4996374;28;20492;-72
2024/04/07 12:40:24;;;;;;;1.40;0.80;;;27.80;77.90;;;;;;4994151;28;20042;-73
2024/04/07 12:42:50;;;;;;;1.88;0.85;;;27.80;77.50;;;;;;4996383;28;20479;-72
2024/04/07 12:45:16;;;;;;;4.50;1.02;;;27.90;77.90;;;;;;4996135;28;20461;-72
2024/04/07 12:47:43;;;;;;;0.65;0.55;;;28.00;77.80;;;;;;4993095;28;20038;-73
2024/04/07 12:50:09;;;;;;;5.38;0.90;;;28.10;78.30;;;;;;5010244;28;20045;-73